sensor_id;sensor_type;location;lat;lon;timestamp;pressure;altitude;pressure_sealevel;temperature;humidity
84667;BME280;74896;42.518;23.712;2024-02-28T00:01:08;92482.34;;;3.22;90.97
84667;BME280;74896;42.518;23.712;2024-02-28T00:03:34;92479.94;;;3.21;90.12
84667;BME280;74896;42.518;23.712;2024-02-28T00:05:59;92487.91;;;3.11;90.55
84667;BME280;74896;42.518;23.712;2024-02-28T00:08:25;92486.75;;;3.14;90.76
84667;BME280;74896;42.518;23.712;2024-02-28T00:10:50;92484.63;;;3.17;90.40
84667;BME280;74896;42.518;23.712;2024-02-28T00:13:15;92486.47;;;3.23;89.42
84667;BME280;74896;42.518;23.712;2024-02-28T00:15:41;92491.03;;;3.28;89.54
84667;BME280;74896;42.518;23.712;2024-02-28T00:18:07;92497.88;;;3.21;88.93
84667;BME280;74896;42.518;23.712;2024-02-28T00:20:32;92491.50;;;3.31;88.74
84667;BME280;74896;42.518;23.712;2024-02-28T00:22:58;92494.63;;;3.12;88.77
84667;BME280;74896;42.518;23.712;2024-02-28T00:25:23;92483.78;;;2.96;89.34
84667;BME280;74896;42.518;23.712;2024-02-28T00:27:48;92489.72;;;2.96;89.62
84667;BME280;74896;42.518;23.712;2024-02-28T00:30:14;92488.56;;;2.99;88.86
84667;BME280;74896;42.518;23.712;2024-02-28T00:32:39;92490.06;;;2.93;89.61
84667;BME280;74896;42.518;23.712;2024-02-28T00:35:05;92482.25;;;2.80;91.12
84667;BME280;74896;42.518;23.712;2024-02-28T00:37:30;92492.13;;;2.83;91.21
84667;BME280;74896;42.518;23.712;2024-02-28T00:39:56;92480.00;;;2.92;91.22
84667;BME280;74896;42.518;23.712;2024-02-28T00:42:22;92480.00;;;2.92;91.04
84667;BME280;74896;42.518;23.712;2024-02-28T00:44:47;92485.00;;;3.00;90.18
84667;BME280;74896;42.518;23.712;2024-02-28T00:47:12;92486.47;;;2.88;90.39
84667;BME280;74896;42.518;23.712;2024-02-28T00:49:38;92485.84;;;2.85;90.35
84667;BME280;74896;42.518;23.712;2024-02-28T00:52:03;92486.56;;;2.94;89.98
84667;BME280;74896;42.518;23.712;2024-02-28T00:54:29;92491.28;;;2.97;89.51
84667;BME280;74896;42.518;23.712;2024-02-28T00:56:54;92486.09;;;2.91;89.88
84667;BME280;74896;42.518;23.712;2024-02-28T00:59:20;92486.56;;;2.94;89.65
84667;BME280;74896;42.518;23.712;2024-02-28T01:01:45;92483.47;;;2.84;90.76
84667;BME280;74896;42.518;23.712;2024-02-28T01:04:10;92489.03;;;2.88;91.48
84667;BME280;74896;42.518;23.712;2024-02-28T01:06:36;92486.88;;;3.06;91.17
84667;BME280;74896;42.518;23.712;2024-02-28T01:09:02;92493.16;;;3.03;90.92
84667;BME280;74896;42.518;23.712;2024-02-28T01:11:28;92490.66;;;3.10;90.81
84667;BME280;74896;42.518;23.712;2024-02-28T01:13:53;92488.91;;;3.10;90.39
84667;BME280;74896;42.518;23.712;2024-02-28T01:16:19;92485.78;;;3.15;91.16
84667;BME280;74896;42.518;23.712;2024-02-28T01:18:44;92493.78;;;3.26;91.01
84667;BME280;74896;42.518;23.712;2024-02-28T01:21:09;92489.34;;;3.35;91.56
84667;BME280;74896;42.518;23.712;2024-02-28T01:23:35;92493.56;;;3.42;91.26
84667;BME280;74896;42.518;23.712;2024-02-28T01:26:00;92505.53;;;3.57;91.15
84667;BME280;74896;42.518;23.712;2024-02-28T01:28:29;92503.44;;;3.67;91.45
84667;BME280;74896;42.518;23.712;2024-02-28T01:30:54;92509.03;;;3.70;91.68
84667;BME280;74896;42.518;23.712;2024-02-28T01:33:19;92503.94;;;3.77;92.15
84667;BME280;74896;42.518;23.712;2024-02-28T01:35:45;92509.00;;;3.91;92.04
84667;BME280;74896;42.518;23.712;2024-02-28T01:38:10;92508.91;;;4.06;91.36
84667;BME280;74896;42.518;23.712;2024-02-28T01:40:35;92510.00;;;4.18;91.64
84667;BME280;74896;42.518;23.712;2024-02-28T01:43:08;92515.16;;;4.24;91.75
84667;BME280;74896;42.518;23.712;2024-02-28T01:45:33;92512.47;;;4.33;91.43
84667;BME280;74896;42.518;23.712;2024-02-28T01:47:59;92514.88;;;4.41;91.45
84667;BME280;74896;42.518;23.712;2024-02-28T01:50:25;92518.50;;;4.46;91.32
84667;BME280;74896;42.518;23.712;2024-02-28T01:52:51;92511.44;;;4.55;90.66
84667;BME280;74896;42.518;23.712;2024-02-28T01:55:17;92523.50;;;4.61;91.21
84667;BME280;74896;42.518;23.712;2024-02-28T01:57:43;92513.09;;;4.69;91.18
84667;BME280;74896;42.518;23.712;2024-02-28T02:00:09;92512.72;;;4.72;91.26
84667;BME280;74896;42.518;23.712;2024-02-28T02:02:36;92510.94;;;4.72;90.77
84667;BME280;74896;42.518;23.712;2024-02-28T02:05:02;92509.59;;;4.76;89.84
84667;BME280;74896;42.518;23.712;2024-02-28T02:07:28;92496.56;;;4.84;89.37
84667;BME280;74896;42.518;23.712;2024-02-28T02:09:54;92505.22;;;4.77;89.00
84667;BME280;74896;42.518;23.712;2024-02-28T02:12:19;92503.19;;;4.66;89.91
84667;BME280;74896;42.518;23.712;2024-02-28T02:14:48;92509.97;;;4.73;89.56
84667;BME280;74896;42.518;23.712;2024-02-28T02:17:14;92503.22;;;4.72;89.52
84667;BME280;74896;42.518;23.712;2024-02-28T02:19:39;92505.19;;;4.70;89.19
84667;BME280;74896;42.518;23.712;2024-02-28T02:22:05;92507.34;;;4.67;89.12
84667;BME280;74896;42.518;23.712;2024-02-28T02:24:33;92505.59;;;4.67;88.36
84667;BME280;74896;42.518;23.712;2024-02-28T02:26:58;92518.81;;;4.64;88.07
84667;BME280;74896;42.518;23.712;2024-02-28T02:29:24;92511.03;;;4.51;89.00
84667;BME280;74896;42.518;23.712;2024-02-28T02:31:49;92513.41;;;4.53;88.95
84667;BME280;74896;42.518;23.712;2024-02-28T02:34:15;92512.63;;;4.59;89.71
84667;BME280;74896;42.518;23.712;2024-02-28T02:36:40;92510.72;;;4.67;88.96
84667;BME280;74896;42.518;23.712;2024-02-28T02:39:05;92511.81;;;4.58;88.89
84667;BME280;74896;42.518;23.712;2024-02-28T02:41:36;92508.31;;;4.66;89.76
84667;BME280;74896;42.518;23.712;2024-02-28T02:44:01;92507.16;;;4.68;89.89
84667;BME280;74896;42.518;23.712;2024-02-28T02:46:26;92511.31;;;4.69;89.57
84667;BME280;74896;42.518;23.712;2024-02-28T02:48:52;92511.94;;;4.71;89.31
84667;BME280;74896;42.518;23.712;2024-02-28T02:51:19;92511.75;;;4.79;89.31
84667;BME280;74896;42.518;23.712;2024-02-28T02:53:44;92507.22;;;4.81;89.00
84667;BME280;74896;42.518;23.712;2024-02-28T02:56:10;92509.88;;;4.94;89.06
84667;BME280;74896;42.518;23.712;2024-02-28T02:58:35;92511.84;;;4.92;89.58
84667;BME280;74896;42.518;23.712;2024-02-28T03:01:01;92511.22;;;4.90;88.77
84667;BME280;74896;42.518;23.712;2024-02-28T03:03:26;92504.53;;;4.96;88.94
84667;BME280;74896;42.518;23.712;2024-02-28T03:05:51;92509.31;;;5.06;88.35
84667;BME280;74896;42.518;23.712;2024-02-28T03:08:17;92512.84;;;5.05;88.38
84667;BME280;74896;42.518;23.712;2024-02-28T03:10:42;92501.84;;;5.11;87.97
84667;BME280;74896;42.518;23.712;2024-02-28T03:13:07;92505.41;;;5.16;88.19
84667;BME280;74896;42.518;23.712;2024-02-28T03:15:33;92505.41;;;5.23;87.39
84667;BME280;74896;42.518;23.712;2024-02-28T03:17:59;92512.16;;;5.30;86.92
84667;BME280;74896;42.518;23.712;2024-02-28T03:20:24;92511.78;;;5.27;87.06
84667;BME280;74896;42.518;23.712;2024-02-28T03:22:51;92512.38;;;5.29;86.78
84667;BME280;74896;42.518;23.712;2024-02-28T03:25:16;92516.91;;;5.27;87.07
84667;BME280;74896;42.518;23.712;2024-02-28T03:27:42;92521.03;;;5.21;87.43
84667;BME280;74896;42.518;23.712;2024-02-28T03:30:08;92518.47;;;5.21;88.09
84667;BME280;74896;42.518;23.712;2024-02-28T03:32:33;92514.56;;;5.32;87.51
84667;BME280;74896;42.518;23.712;2024-02-28T03:34:58;92522.88;;;5.34;87.42
84667;BME280;74896;42.518;23.712;2024-02-28T03:37:24;92518.91;;;5.31;87.72
84667;BME280;74896;42.518;23.712;2024-02-28T03:39:49;92525.03;;;5.37;87.64
84667;BME280;74896;42.518;23.712;2024-02-28T03:42:15;92517.31;;;5.37;86.96
84667;BME280;74896;42.518;23.712;2024-02-28T03:44:40;92521.06;;;5.34;87.15
84667;BME280;74896;42.518;23.712;2024-02-28T03:47:05;92518.09;;;5.31;87.32
84667;BME280;74896;42.518;23.712;2024-02-28T03:49:31;92523.59;;;5.21;87.67
84667;BME280;74896;42.518;23.712;2024-02-28T03:51:56;92532.50;;;5.25;88.24
84667;BME280;74896;42.518;23.712;2024-02-28T03:54:21;92527.22;;;5.33;87.75
84667;BME280;74896;42.518;23.712;2024-02-28T03:56:47;92518.50;;;5.34;87.33
84667;BME280;74896;42.518;23.712;2024-02-28T03:59:12;92520.91;;;5.36;87.24
84667;BME280;74896;42.518;23.712;2024-02-28T04:01:38;92513.56;;;5.33;87.40
84667;BME280;74896;42.518;23.712;2024-02-28T04:04:03;92516.50;;;5.30;87.33
84667;BME280;74896;42.518;23.712;2024-02-28T04:06:29;92521.06;;;5.34;87.14
84667;BME280;74896;42.518;23.712;2024-02-28T04:08:54;92517.31;;;5.37;86.66
84667;BME280;74896;42.518;23.712;2024-02-28T04:11:20;92518.09;;;5.24;87.38
84667;BME280;74896;42.518;23.712;2024-02-28T04:13:45;92514.69;;;5.17;88.29
84667;BME280;74896;42.518;23.712;2024-02-28T04:16:11;92518.66;;;5.20;88.38
84667;BME280;74896;42.518;23.712;2024-02-28T04:18:36;92512.13;;;5.17;88.85
84667;BME280;74896;42.518;23.712;2024-02-28T04:21:02;92518.69;;;5.26;88.67
84667;BME280;74896;42.518;23.712;2024-02-28T04:23:27;92507.22;;;5.22;88.20
84667;BME280;74896;42.518;23.712;2024-02-28T04:25:53;92516.34;;;5.31;87.97
84667;BME280;74896;42.518;23.712;2024-02-28T04:28:19;92517.16;;;5.38;87.97
84667;BME280;74896;42.518;23.712;2024-02-28T04:30:45;92511.00;;;5.39;87.76
84667;BME280;74896;42.518;23.712;2024-02-28T04:33:10;92507.63;;;5.39;87.39
84667;BME280;74896;42.518;23.712;2024-02-28T04:35:36;92511.59;;;5.35;87.88
84667;BME280;74896;42.518;23.712;2024-02-28T04:38:01;92514.00;;;5.43;87.83
84667;BME280;74896;42.518;23.712;2024-02-28T04:40:27;92509.84;;;5.48;87.13
84667;BME280;74896;42.518;23.712;2024-02-28T04:42:52;92504.91;;;5.40;87.24
84667;BME280;74896;42.518;23.712;2024-02-28T04:45:18;92514.59;;;5.38;87.43
84667;BME280;74896;42.518;23.712;2024-02-28T04:47:43;92510.84;;;5.41;87.60
84667;BME280;74896;42.518;23.712;2024-02-28T04:50:09;92510.44;;;5.44;87.76
84667;BME280;74896;42.518;23.712;2024-02-28T04:52:35;92511.81;;;5.46;87.34
84667;BME280;74896;42.518;23.712;2024-02-28T04:55:01;92507.63;;;5.39;87.34
84667;BME280;74896;42.518;23.712;2024-02-28T04:57:27;92510.03;;;5.40;86.99
84667;BME280;74896;42.518;23.712;2024-02-28T04:59:52;92508.84;;;5.36;87.13
84667;BME280;74896;42.518;23.712;2024-02-28T05:02:18;92512.97;;;5.31;87.60
84667;BME280;74896;42.518;23.712;2024-02-28T05:04:43;92510.97;;;5.26;87.55
84667;BME280;74896;42.518;23.712;2024-02-28T05:07:09;92515.09;;;5.21;88.06
84667;BME280;74896;42.518;23.712;2024-02-28T05:09:34;92512.16;;;5.24;88.02
84667;BME280;74896;42.518;23.712;2024-02-28T05:12:01;92517.50;;;5.22;88.38
84667;BME280;74896;42.518;23.712;2024-02-28T05:14:26;92518.09;;;5.24;87.68
84667;BME280;74896;42.518;23.712;2024-02-28T05:16:52;92525.59;;;5.26;87.88
84667;BME280;74896;42.518;23.712;2024-02-28T05:19:17;92524.03;;;5.25;88.27
84667;BME280;74896;42.518;23.712;2024-02-28T05:21:45;92537.06;;;5.30;88.54
84667;BME280;74896;42.518;23.712;2024-02-28T05:24:11;92537.06;;;5.23;88.43
84667;BME280;74896;42.518;23.712;2024-02-28T05:26:38;92539.06;;;5.28;88.87
84667;BME280;74896;42.518;23.712;2024-02-28T05:29:04;92546.84;;;5.41;87.93
84667;BME280;74896;42.518;23.712;2024-02-28T05:31:30;92549.81;;;5.44;87.99
84667;BME280;74896;42.518;23.712;2024-02-28T05:34:00;92556.13;;;5.48;87.95
84667;BME280;74896;42.518;23.712;2024-02-28T05:36:27;92558.56;;;5.56;88.03
84667;BME280;74896;42.518;23.712;2024-02-28T05:38:54;92564.50;;;5.63;87.41
84667;BME280;74896;42.518;23.712;2024-02-28T05:41:20;92563.94;;;5.68;87.41
84667;BME280;74896;42.518;23.712;2024-02-28T05:43:46;92572.03;;;5.72;87.56
84667;BME280;74896;42.518;23.712;2024-02-28T05:46:12;92578.34;;;5.69;87.38
84667;BME280;74896;42.518;23.712;2024-02-28T05:48:38;92573.22;;;5.69;86.84
84667;BME280;74896;42.518;23.712;2024-02-28T05:51:03;92577.78;;;5.74;86.63
84667;BME280;74896;42.518;23.712;2024-02-28T05:53:30;92578.63;;;5.87;86.36
84667;BME280;74896;42.518;23.712;2024-02-28T05:56:01;92577.06;;;5.99;85.83
84667;BME280;74896;42.518;23.712;2024-02-28T05:58:26;92573.75;;;6.05;85.63
84667;BME280;74896;42.518;23.712;2024-02-28T06:00:52;92577.09;;;6.06;85.75
84667;BME280;74896;42.518;23.712;2024-02-28T06:03:17;92581.66;;;6.10;85.93
84667;BME280;74896;42.518;23.712;2024-02-28T06:05:43;92581.84;;;6.09;85.32
84667;BME280;74896;42.518;23.712;2024-02-28T06:08:08;92586.78;;;6.10;85.96
84667;BME280;74896;42.518;23.712;2024-02-28T06:10:34;92590.16;;;6.11;86.41
84667;BME280;74896;42.518;23.712;2024-02-28T06:12:59;92587.00;;;6.22;85.81
84667;BME280;74896;42.518;23.712;2024-02-28T06:15:26;92589.78;;;6.27;85.00
84667;BME280;74896;42.518;23.712;2024-02-28T06:17:51;92594.94;;;6.33;84.68
84667;BME280;74896;42.518;23.712;2024-02-28T06:20:17;92594.13;;;6.26;85.41
84667;BME280;74896;42.518;23.712;2024-02-28T06:22:42;92596.31;;;6.16;85.52
84667;BME280;74896;42.518;23.712;2024-02-28T06:25:08;92598.09;;;6.16;84.67
84667;BME280;74896;42.518;23.712;2024-02-28T06:27:42;92593.16;;;6.14;85.63
84667;BME280;74896;42.518;23.712;2024-02-28T06:30:08;92598.69;;;6.18;85.70
84667;BME280;74896;42.518;23.712;2024-02-28T06:32:33;92599.28;;;6.20;85.13
84667;BME280;74896;42.518;23.712;2024-02-28T06:35:00;92601.25;;;6.11;85.48
84667;BME280;74896;42.518;23.712;2024-02-28T06:37:25;92608.19;;;6.24;85.41
84667;BME280;74896;42.518;23.712;2024-02-28T06:39:51;92608.19;;;6.17;84.55
84667;BME280;74896;42.518;23.712;2024-02-28T06:42:16;92613.34;;;6.17;84.84
84667;BME280;74896;42.518;23.712;2024-02-28T06:44:42;92614.72;;;6.20;84.77
84667;BME280;74896;42.518;23.712;2024-02-28T06:47:07;92615.16;;;6.23;85.40
84667;BME280;74896;42.518;23.712;2024-02-28T06:49:34;92607.63;;;6.28;85.07
84667;BME280;74896;42.518;23.712;2024-02-28T06:51:59;92619.53;;;6.56;85.71
84667;BME280;74896;42.518;23.712;2024-02-28T06:54:27;92613.41;;;6.70;83.32
84667;BME280;74896;42.518;23.712;2024-02-28T06:56:52;92616.16;;;6.88;83.66
84667;BME280;74896;42.518;23.712;2024-02-28T06:59:18;92617.13;;;6.93;83.49
84667;BME280;74896;42.518;23.712;2024-02-28T07:01:43;92626.06;;;7.04;81.28
84667;BME280;74896;42.518;23.712;2024-02-28T07:04:09;92611.78;;;7.01;81.40
84667;BME280;74896;42.518;23.712;2024-02-28T07:06:34;92624.06;;;7.13;82.45
84667;BME280;74896;42.518;23.712;2024-02-28T07:08:59;92628.44;;;7.05;80.75
84667;BME280;74896;42.518;23.712;2024-02-28T07:11:25;92627.63;;;7.18;80.73
84667;BME280;74896;42.518;23.712;2024-02-28T07:13:50;92623.63;;;7.29;81.81
84667;BME280;74896;42.518;23.712;2024-02-28T07:16:15;92622.63;;;7.23;80.57
84667;BME280;74896;42.518;23.712;2024-02-28T07:18:41;92626.75;;;7.44;80.64
84667;BME280;74896;42.518;23.712;2024-02-28T07:21:06;92626.72;;;7.63;80.38
84667;BME280;74896;42.518;23.712;2024-02-28T07:23:32;92624.25;;;7.82;78.50
84667;BME280;74896;42.518;23.712;2024-02-28T07:25:57;92626.13;;;8.06;78.37
84667;BME280;74896;42.518;23.712;2024-02-28T07:28:23;92628.72;;;8.06;77.26
84667;BME280;74896;42.518;23.712;2024-02-28T07:30:48;92628.66;;;8.19;77.06
84667;BME280;74896;42.518;23.712;2024-02-28T07:33:14;92626.63;;;8.27;77.34
84667;BME280;74896;42.518;23.712;2024-02-28T07:35:46;92626.34;;;8.42;76.72
84667;BME280;74896;42.518;23.712;2024-02-28T07:38:12;92626.53;;;8.47;76.75
84667;BME280;74896;42.518;23.712;2024-02-28T07:40:37;92629.06;;;8.78;74.51
84667;BME280;74896;42.518;23.712;2024-02-28T07:43:03;92629.75;;;8.92;73.96
84667;BME280;74896;42.518;23.712;2024-02-28T07:45:28;92633.72;;;8.94;73.03
84667;BME280;74896;42.518;23.712;2024-02-28T07:47:54;92636.09;;;8.96;73.89
84667;BME280;74896;42.518;23.712;2024-02-28T07:50:19;92638.03;;;9.00;73.04
84667;BME280;74896;42.518;23.712;2024-02-28T07:52:44;92640.31;;;9.15;72.60
84667;BME280;74896;42.518;23.712;2024-02-28T07:55:10;92627.63;;;9.32;73.07
84667;BME280;74896;42.518;23.712;2024-02-28T07:57:36;92631.09;;;9.44;70.63
84667;BME280;74896;42.518;23.712;2024-02-28T08:00:01;92630.44;;;9.66;70.68
84667;BME280;74896;42.518;23.712;2024-02-28T08:02:27;92635.56;;;9.30;71.28
84667;BME280;74896;42.518;23.712;2024-02-28T08:04:52;92640.56;;;9.50;71.52
84667;BME280;74896;42.518;23.712;2024-02-28T08:07:17;92635.53;;;9.91;70.65
84667;BME280;74896;42.518;23.712;2024-02-28T08:09:43;92640.53;;;10.04;67.46
84667;BME280;74896;42.518;23.712;2024-02-28T08:12:08;92638.19;;;10.03;68.37
84667;BME280;74896;42.518;23.712;2024-02-28T08:14:34;92637.22;;;10.33;67.38
84667;BME280;74896;42.518;23.712;2024-02-28T08:16:59;92635.44;;;10.45;66.56
84667;BME280;74896;42.518;23.712;2024-02-28T08:19:24;92634.78;;;10.80;66.41
84667;BME280;74896;42.518;23.712;2024-02-28T08:21:50;92636.28;;;11.10;64.89
84667;BME280;74896;42.518;23.712;2024-02-28T08:24:15;92634.03;;;11.25;64.52
84667;BME280;74896;42.518;23.712;2024-02-28T08:26:40;92626.81;;;11.39;65.01
84667;BME280;74896;42.518;23.712;2024-02-28T08:29:07;92623.84;;;11.59;63.38
84667;BME280;74896;42.518;23.712;2024-02-28T08:31:32;92626.13;;;11.67;64.07
84667;BME280;74896;42.518;23.712;2024-02-28T08:33:58;92628.84;;;11.25;62.63
84667;BME280;74896;42.518;23.712;2024-02-28T08:36:23;92626.13;;;11.32;64.01
84667;BME280;74896;42.518;23.712;2024-02-28T08:38:54;92619.91;;;11.79;64.22
84667;BME280;74896;42.518;23.712;2024-02-28T08:41:19;92623.56;;;12.07;62.65
84667;BME280;74896;42.518;23.712;2024-02-28T08:43:45;92612.88;;;12.31;61.82
84667;BME280;74896;42.518;23.712;2024-02-28T08:46:14;92626.50;;;12.66;59.43
84667;BME280;74896;42.518;23.712;2024-02-28T08:48:40;92617.38;;;12.81;59.91
84667;BME280;74896;42.518;23.712;2024-02-28T08:51:06;92621.06;;;12.85;59.10
84667;BME280;74896;42.518;23.712;2024-02-28T08:53:31;92621.00;;;12.96;60.15
84667;BME280;74896;42.518;23.712;2024-02-28T08:55:57;92623.09;;;13.11;59.29
84667;BME280;74896;42.518;23.712;2024-02-28T08:58:22;92624.47;;;12.85;59.52
84667;BME280;74896;42.518;23.712;2024-02-28T09:00:47;92626.25;;;13.13;57.75
84667;BME280;74896;42.518;23.712;2024-02-28T09:03:14;92630.53;;;13.74;57.09
84667;BME280;74896;42.518;23.712;2024-02-28T09:05:39;92623.47;;;13.36;56.47
84667;BME280;74896;42.518;23.712;2024-02-28T09:08:05;92620.94;;;13.79;56.55
84667;BME280;74896;42.518;23.712;2024-02-28T09:10:31;92623.00;;;13.22;57.17
84667;BME280;74896;42.518;23.712;2024-02-28T09:12:59;92620.19;;;13.79;56.24
84667;BME280;74896;42.518;23.712;2024-02-28T09:15:25;92621.88;;;13.90;55.37
84667;BME280;74896;42.518;23.712;2024-02-28T09:17:50;92617.59;;;13.79;54.70
84667;BME280;74896;42.518;23.712;2024-02-28T09:20:16;92622.22;;;13.77;55.69
84667;BME280;74896;42.518;23.712;2024-02-28T09:22:42;92614.41;;;13.77;54.95
84667;BME280;74896;42.518;23.712;2024-02-28T09:25:08;92618.13;;;13.81;57.26
84667;BME280;74896;42.518;23.712;2024-02-28T09:27:34;92620.16;;;13.41;56.96
84667;BME280;74896;42.518;23.712;2024-02-28T09:30:00;92613.03;;;13.53;55.98
84667;BME280;74896;42.518;23.712;2024-02-28T09:32:26;92611.44;;;13.52;55.54
84667;BME280;74896;42.518;23.712;2024-02-28T09:34:51;92611.16;;;12.98;57.44
84667;BME280;74896;42.518;23.712;2024-02-28T09:37:17;92611.47;;;12.85;58.30
84667;BME280;74896;42.518;23.712;2024-02-28T09:39:42;92614.16;;;12.90;58.24
84667;BME280;74896;42.518;23.712;2024-02-28T09:42:09;92611.59;;;13.07;56.92
84667;BME280;74896;42.518;23.712;2024-02-28T09:44:36;92611.34;;;13.08;58.35
84667;BME280;74896;42.518;23.712;2024-02-28T09:47:02;92611.94;;;13.49;56.90
84667;BME280;74896;42.518;23.712;2024-02-28T09:49:28;92607.91;;;13.79;54.05
84667;BME280;74896;42.518;23.712;2024-02-28T09:51:57;92598.72;;;13.93;55.19
84667;BME280;74896;42.518;23.712;2024-02-28T09:54:23;92603.88;;;13.88;53.46
84667;BME280;74896;42.518;23.712;2024-02-28T09:56:49;92601.53;;;14.08;53.46
84667;BME280;74896;42.518;23.712;2024-02-28T09:59:15;92601.81;;;14.12;54.54
84667;BME280;74896;42.518;23.712;2024-02-28T10:01:43;92594.00;;;13.90;54.43
84667;BME280;74896;42.518;23.712;2024-02-28T10:04:12;92600.31;;;13.94;54.06
84667;BME280;74896;42.518;23.712;2024-02-28T10:06:41;92592.97;;;13.70;54.48
84667;BME280;74896;42.518;23.712;2024-02-28T10:09:06;92591.06;;;13.65;54.29
84667;BME280;74896;42.518;23.712;2024-02-28T10:11:33;92594.72;;;13.86;53.06
84667;BME280;74896;42.518;23.712;2024-02-28T10:14:00;92588.22;;;13.67;53.93
84667;BME280;74896;42.518;23.712;2024-02-28T10:16:26;92589.28;;;13.49;55.05
84667;BME280;74896;42.518;23.712;2024-02-28T10:18:52;92586.38;;;13.46;54.23
84667;BME280;74896;42.518;23.712;2024-02-28T10:21:18;92586.53;;;13.39;55.43
84667;BME280;74896;42.518;23.712;2024-02-28T10:23:44;92585.00;;;13.60;53.55
84667;BME280;74896;42.518;23.712;2024-02-28T10:26:11;92584.94;;;13.55;53.47
84667;BME280;74896;42.518;23.712;2024-02-28T10:28:37;92582.03;;;13.51;54.23
84667;BME280;74896;42.518;23.712;2024-02-28T10:31:04;92585.75;;;13.38;55.55
84667;BME280;74896;42.518;23.712;2024-02-28T10:33:30;92578.47;;;13.41;55.32
84667;BME280;74896;42.518;23.712;2024-02-28T10:35:58;92585.72;;;13.55;54.50
84667;BME280;74896;42.518;23.712;2024-02-28T10:38:26;92586.38;;;13.46;55.36
84667;BME280;74896;42.518;23.712;2024-02-28T10:40:53;92581.34;;;13.39;54.61
84667;BME280;74896;42.518;23.712;2024-02-28T10:43:19;92581.97;;;13.29;54.12
84667;BME280;74896;42.518;23.712;2024-02-28T10:45:44;92577.00;;;13.66;54.37
84667;BME280;74896;42.518;23.712;2024-02-28T10:48:14;92573.31;;;13.62;53.74
84667;BME280;74896;42.518;23.712;2024-02-28T10:50:39;92570.22;;;13.87;53.63
84667;BME280;74896;42.518;23.712;2024-02-28T10:53:11;92565.22;;;14.02;53.73
84667;BME280;74896;42.518;23.712;2024-02-28T10:55:40;92566.59;;;14.31;52.48
84667;BME280;74896;42.518;23.712;2024-02-28T10:58:07;92566.38;;;14.38;51.85
84667;BME280;74896;42.518;23.712;2024-02-28T11:00:34;92571.97;;;14.78;52.89
84667;BME280;74896;42.518;23.712;2024-02-28T11:03:01;92568.31;;;15.11;51.47
84667;BME280;74896;42.518;23.712;2024-02-28T11:05:43;92560.34;;;15.27;49.57
84667;BME280;74896;42.518;23.712;2024-02-28T11:08:20;92558.03;;;15.36;49.60
84667;BME280;74896;42.518;23.712;2024-02-28T11:10:46;92555.72;;;15.39;49.98
84667;BME280;74896;42.518;23.712;2024-02-28T11:13:25;92555.69;;;15.34;51.00
84667;BME280;74896;42.518;23.712;2024-02-28T11:15:51;92550.66;;;14.86;50.19
84667;BME280;74896;42.518;23.712;2024-02-28T11:18:16;92539.94;;;15.24;49.19
84667;BME280;74896;42.518;23.712;2024-02-28T11:20:42;92543.34;;;15.62;48.71
84667;BME280;74896;42.518;23.712;2024-02-28T11:23:11;92536.69;;;16.01;46.75
84667;BME280;74896;42.518;23.712;2024-02-28T11:25:37;92531.81;;;16.25;46.58
84667;BME280;74896;42.518;23.712;2024-02-28T11:28:02;92537.19;;;15.88;47.61
84667;BME280;74896;42.518;23.712;2024-02-28T11:30:28;92530.66;;;15.90;48.16
84667;BME280;74896;42.518;23.712;2024-02-28T11:32:54;92535.38;;;15.88;48.21
84667;BME280;74896;42.518;23.712;2024-02-28T11:35:20;92531.66;;;15.84;47.84
84667;BME280;74896;42.518;23.712;2024-02-28T11:37:46;92527.00;;;15.96;47.32
84667;BME280;74896;42.518;23.712;2024-02-28T11:40:13;92522.34;;;16.08;45.26
84667;BME280;74896;42.518;23.712;2024-02-28T11:42:38;92522.59;;;16.12;46.57
84667;BME280;74896;42.518;23.712;2024-02-28T11:45:04;92521.88;;;16.32;45.96
84667;BME280;74896;42.518;23.712;2024-02-28T11:47:34;92513.06;;;16.93;45.07
84667;BME280;74896;42.518;23.712;2024-02-28T11:50:03;92521.47;;;16.85;44.37
84667;BME280;74896;42.518;23.712;2024-02-28T11:52:32;92516.97;;;17.21;43.75
84667;BME280;74896;42.518;23.712;2024-02-28T11:54:58;92519.63;;;17.01;45.51
84667;BME280;74896;42.518;23.712;2024-02-28T11:57:23;92514.63;;;17.19;42.33
84667;BME280;74896;42.518;23.712;2024-02-28T11:59:49;92500.44;;;17.30;44.58
84667;BME280;74896;42.518;23.712;2024-02-28T12:02:15;92515.41;;;16.95;42.07
84667;BME280;74896;42.518;23.712;2024-02-28T12:04:42;92506.72;;;16.39;43.93
84667;BME280;74896;42.518;23.712;2024-02-28T12:07:11;92505.59;;;15.99;44.96
84667;BME280;74896;42.518;23.712;2024-02-28T12:09:37;92498.81;;;16.18;46.89
84667;BME280;74896;42.518;23.712;2024-02-28T12:12:04;92498.75;;;15.93;46.11
84667;BME280;74896;42.518;23.712;2024-02-28T12:14:37;92503.28;;;16.23;45.48
84667;BME280;74896;42.518;23.712;2024-02-28T12:17:05;92496.25;;;16.34;46.00
84667;BME280;74896;42.518;23.712;2024-02-28T12:19:30;92489.47;;;16.58;43.33
84667;BME280;74896;42.518;23.712;2024-02-28T12:21:56;92488.19;;;16.75;43.14
84667;BME280;74896;42.518;23.712;2024-02-28T12:24:21;92492.66;;;16.80;43.43
84667;BME280;74896;42.518;23.712;2024-02-28T12:26:47;92494.22;;;16.66;43.96
84667;BME280;74896;42.518;23.712;2024-02-28T12:29:12;92483.22;;;16.64;43.07
84667;BME280;74896;42.518;23.712;2024-02-28T12:31:38;92472.72;;;16.54;42.46
84667;BME280;74896;42.518;23.712;2024-02-28T12:34:04;92475.84;;;16.46;42.35
84667;BME280;74896;42.518;23.712;2024-02-28T12:36:30;92472.72;;;16.44;44.13
84667;BME280;74896;42.518;23.712;2024-02-28T12:38:56;92465.38;;;16.46;42.68
84667;BME280;74896;42.518;23.712;2024-02-28T12:41:22;92479.00;;;16.63;43.55
84667;BME280;74896;42.518;23.712;2024-02-28T12:43:47;92479.28;;;16.71;41.79
84667;BME280;74896;42.518;23.712;2024-02-28T12:46:13;92469.59;;;16.52;43.04
84667;BME280;74896;42.518;23.712;2024-02-28T12:48:39;92465.09;;;16.37;43.50
84667;BME280;74896;42.518;23.712;2024-02-28T12:51:05;92469.31;;;16.53;44.15